Pierport, Michigan
Current Conditions -  °F | °C
As of 9:15 PM on Sunday 25 Jan 2015 (Local Time) from KMBL Reporting Station
Clear Clear  
Wind Chill: 10°   Ceiling: Unl
Heat Index: 10°   Visibility: 10mi
Dew Point:   Wind: 0mph
Humidity: 67%   Direction: NA
Pressure: 30.07"   Gusts: NA
Location:  44.4397°N, 86.1119°W
Report Text: KMBL 260215Z AUTO 00000KT 10SM CLR M12/M17 A3007 RMK AO1
Loading
Personal Weather Stations






























Interactive Weather Map New forecast layout! Learn more

10-Day Weather Forecast

Advertisements
Track Severe Weather on mobile